DW6558 Weather Reports


Display with metric or nautical units.
time (UTC)temp
F
wind
direction
speed
MPH
gust
MPH
rain 1hr
in
rain 24hr
in
rain mn
in
humidity
%
barometer
mb
20230203060126 20 288 1.0 1.0 0.00 0.00 0.00 83 1031.8
20230203055624 21 338 0.0 0.0 0.00 0.00 0.00 83 1031.9
20230203055122 21 336 0.0 0.0 0.00 0.00 0.00 83 1031.8
20230203054621 21 340 0.0 1.0 0.00 0.00 0.00 83 1031.7
20230203054120 21 340 0.0 0.0 0.00 0.00 0.00 82 1031.6
20230203053619 21 339 0.0 0.0 0.00 0.00 0.00 82 1031.7
20230203053118 21 337 0.0 1.0 0.00 0.00 0.00 82 1031.6
20230203052618 21 344 0.0 0.0 0.00 0.00 0.00 82 1031.4
20230203052118 21 344 0.0 0.0 0.00 0.00 0.00 82 1031.4
20230203051617 21 344 0.0 0.0 0.00 0.00 0.00 82 1031.1
20230203051116 21 344 1.0 1.0 0.00 0.00 0.00 82 1031.3
20230203050614 21 344 0.0 0.0 0.00 0.00 0.00 83 1031.3
20230203050112 21 344 0.0 0.0 0.00 0.00 0.00 82 1031.3
20230203045611 21 344 0.0 0.0 0.00 0.00 0.00 82 1031.1
20230203045109 21 344 0.0 0.0 0.00 0.00 0.00 83 1031.4
20230203044609 22 343 0.0 0.0 0.00 0.00 0.00 83 1031.4
20230203044108 22 344 0.0 1.0 0.00 0.00 0.00 83 1031.6
20230203043608 22 345 0.0 0.0 0.00 0.00 0.00 83 1031.7
20230203043108 22 345 0.0 0.0 0.00 0.00 0.00 83 1031.4
20230203042608 22 345 0.0 0.0 0.00 0.00 0.00 82 1031.3
20230203042106 22 345 0.0 0.0 0.00 0.00 0.00 82 1031.4
20230203041605 22 345 0.0 0.0 0.00 0.00 0.00 82 1031.6
20230203041104 22 345 0.0 0.0 0.00 0.00 0.00 82 1031.7
20230203040603 22 345 0.0 0.0 0.00 0.00 0.00 83 1031.4
20230203040103 22 345 0.0 0.0 0.00 0.00 0.00 83 1031.5
20230203035602 21 344 0.0 0.0 0.00 0.00 0.00 82 1031.6
20230203035100 22 338 1.0 2.0 0.00 0.00 0.00 81 1031.6
20230203034559 22 319 0.0 1.0 0.00 0.00 0.00 80 1031.7
20230203034057 22 262 2.0 3.0 0.00 0.00 0.00 80 1031.4
20230203033557 23 194 0.0 0.0 0.00 0.00 0.00 80 1031.0
20230203033056 23 193 0.0 0.0 0.00 0.00 0.00 79 1031.1
20230203032555 22 193 0.0 0.0 0.00 0.00 0.00 79 1031.1
20230203032055 22 193 0.0 0.0 0.00 0.00 0.00 79 1031.6
20230203031553 22 193 0.0 0.0 0.00 0.00 0.00 79 1031.5
20230203031052 22 194 1.0 2.0 0.00 0.00 0.00 79 1031.1
20230203030550 23 194 1.0 2.0 0.00 0.00 0.00 80 1031.3
20230203030050 23 194 1.0 2.0 0.00 0.00 0.00 80 1031.6
20230203025549 23 194 0.0 1.0 0.00 0.00 0.00 80 1031.6
20230203025048 23 194 0.0 0.0 0.00 0.00 0.00 80 1031.6
20230203024547 23 194 0.0 0.0 0.00 0.00 0.00 80 1031.5
20230203024048 23 194 0.0 0.0 0.00 0.00 0.00 79 1031.5
20230203023547 24 194 0.0 0.0 0.00 0.00 0.00 79 1031.8
20230203023047 24 194 0.0 0.0 0.00 0.00 0.00 79 1032.2
20230203022546 23 194 0.0 0.0 0.00 0.00 0.00 79 1031.8
20230203022046 24 193 0.0 0.0 0.00 0.00 0.00 78 1031.6
20230203021545 24 194 0.0 0.0 0.00 0.00 0.00 79 1032.1
20230203021045 24 194 0.0 0.0 0.00 0.00 0.00 78 1031.8
20230203020543 24 194 0.0 0.0 0.00 0.00 0.00 78 1032.1
20230203020043 24 194 0.0 0.0 0.00 0.00 0.00 78 1031.9
20230203015542 24 194 0.0 0.0 0.00 0.00 0.00 77 1031.7
20230203015041 24 194 0.0 0.0 0.00 0.00 0.00 77 1031.9
20230203014540 24 194 0.0 0.0 0.00 0.00 0.00 77 1031.9
20230203014041 24 194 0.0 0.0 0.00 0.00 0.00 76 1032.1
20230203013540 24 194 0.0 0.0 0.00 0.00 0.00 76 1031.7
20230203013038 25 199 1.0 1.0 0.00 0.00 0.00 76 1031.6
20230203012537 25 231 1.0 1.0 0.00 0.00 0.00 75 1031.6
20230203012036 25 250 1.0 2.0 0.00 0.00 0.00 75 1031.9
20230203011536 26 313 2.0 2.0 0.00 0.00 0.00 75 1031.9
20230203011035 25 335 1.0 1.0 0.00 0.00 0.00 74 1031.6
20230203010535 25 357 0.0 0.0 0.00 0.00 0.00 73 1031.5
20230203010033 26 356 0.0 0.0 0.00 0.00 0.00 73 1031.6
20230203005533 26 356 1.0 1.0 0.00 0.00 0.00 73 1031.6
20230203005033 26 351 3.0 3.0 0.00 0.00 0.00 73 1031.7
20230203004531 26 355 1.0 2.0 0.00 0.00 0.00 72 1031.7
20230203004031 26 353 3.0 3.0 0.00 0.00 0.00 72 1031.8
20230203003529 26 352 3.0 5.0 0.00 0.00 0.00 72 1031.6
20230203003027 27 350 3.0 5.0 0.00 0.00 0.00 71 1031.3
20230203002527 27 0 1.0 1.0 0.00 0.00 0.00 71 1031.5
20230203002025 27 348 1.0 5.0 0.00 0.00 0.00 71 1031.6
20230203001524 27 354 2.0 5.0 0.00 0.00 0.00 70 1031.7
20230203001024 28 3 1.0 3.0 0.00 0.00 0.00 70 1031.5
20230203000523 28 4 2.0 5.0 0.00 0.00 0.00 69 1031.7
20230203000023 28 4 1.0 3.0 0.00 0.00 0.00 68 1031.6
20230202235522 29 338 4.0 5.0 0.00 0.00 0.00 65 1031.4
20230202235020 30 17 1.0 2.0 0.00 0.00 0.00 64 1031.5
20230202234519 30 24 0.0 2.0 0.00 0.00 0.00 64 1031.4
20230202234019 30 19 2.0 3.0 0.00 0.00 0.00 64 1031.1
20230202233517 31 19 1.0 3.0 0.00 0.00 0.00 64 1031.4
20230202233017 31 31 1.0 1.0 0.00 0.00 0.00 64 1031.3
20230202232516 31 354 0.0 2.0 0.00 0.00 0.00 65 1031.1
20230202232016 32 358 3.0 3.0 0.00 0.00 0.00 64 1031.1
20230202231515 32 17 1.0 3.0 0.00 0.00 0.00 64 1031.4
20230202231015 32 21 1.0 5.0 0.00 0.00 0.00 64 1031.1
20230202230513 31 27 1.0 2.0 0.00 0.00 0.00 65 1031.3
20230202230012 31 13 1.0 3.0 0.00 0.00 0.00 65 1031.3
20230202225511 32 348 1.0 3.0 0.00 0.00 0.00 65 1031.4
20230202225009 32 3 1.0 1.0 0.00 0.00 0.00 65 1031.3
20230202224507 32 12 1.0 5.0 0.00 0.00 0.00 66 1031.6
20230202224007 32 14 0.0 5.0 0.00 0.00 0.00 66 1031.8
20230202223506 32 25 1.0 2.0 0.00 0.00 0.00 65 1031.7
20230202223006 32 34 1.0 1.0 0.00 0.00 0.00 64 1031.4
20230202222505 32 20 1.0 5.0 0.00 0.00 0.00 64 1031.5
20230202222004 33 26 0.0 2.0 0.00 0.00 0.00 63 1031.6
20230202221503 33 324 2.0 3.0 0.00 0.00 0.00 63 1031.8
20230202221002 33 2 3.0 5.0 0.00 0.00 0.00 61 1031.7
20230202220501 34 359 0.0 2.0 0.00 0.00 0.00 60 1031.5
20230202220000 33 18 1.0 5.0 0.00 0.00 0.00 62 1031.6
20230202215500 33 357 3.0 5.0 0.00 0.00 0.00 60 1031.7
20230202214959 33 6 2.0 2.0 0.00 0.00 0.00 60 1031.7
20230202214458 33 37 0.0 2.0 0.00 0.00 0.00 61 1031.9
20230202213957 34 15 1.0 1.0 0.00 0.00 0.00 58 1031.4
20230202213455 33 35 1.0 1.0 0.00 0.00 0.00 62 1031.8
20230202212954 32 345 3.0 3.0 0.00 0.00 0.00 61 1031.9
20230202212453 33 351 1.0 2.0 0.00 0.00 0.00 60 1032.1
20230202211953 33 39 0.0 1.0 0.00 0.00 0.00 60 1031.6
20230202211452 32 8 3.0 3.0 0.00 0.00 0.00 62 1031.5
20230202210952 32 18 1.0 2.0 0.00 0.00 0.00 62 1031.8
20230202210451 32 315 3.0 3.0 0.00 0.00 0.00 61 1032.1
20230202205948 32 9 1.0 5.0 0.00 0.00 0.00 62 1032.3
20230202205447 32 14 0.0 1.0 0.00 0.00 0.00 64 1032.2
20230202204946 32 0 4.0 5.0 0.00 0.00 0.00 61 1031.9
20230202204444 32 20 0.0 3.0 0.00 0.00 0.00 63 1032.3
20230202203944 32 303 2.0 3.0 0.00 0.00 0.00 62 1032.4
20230202203443 32 32 1.0 3.0 0.00 0.00 0.00 63 1032.4
20230202202941 30 338 2.0 5.0 0.00 0.00 0.00 64 1032.3
20230202202440 31 30 0.0 2.0 0.00 0.00 0.00 63 1032.3
20230202201939 32 29 0.0 2.0 0.00 0.00 0.00 62 1032.5
20230202201438 32 28 0.0 1.0 0.00 0.00 0.00 62 1032.7
20230202200936 31 31 2.0 3.0 0.00 0.00 0.00 64 1032.7
20230202200436 31 7 1.0 5.0 0.00 0.00 0.00 63 1032.5
20230202195935 30 358 3.0 5.0 0.00 0.00 0.00 64 1032.6
20230202195435 31 342 5.0 6.0 0.00 0.00 0.00 62 1033.0
20230202194935 29 352 3.0 6.0 0.00 0.00 0.00 65 1033.1
20230202194434 30 1 3.0 7.0 0.00 0.00 0.00 63 1032.8
20230202193933 31 31 2.0 3.0 0.00 0.00 0.00 62 1032.7
20230202193433 30 27 1.0 2.0 0.00 0.00 0.00 63 1032.7
20230202192932 30 20 0.0 6.0 0.00 0.00 0.00 64 1033.1
20230202192430 30 31 1.0 3.0 0.00 0.00 0.00 63 1033.0
20230202191929 30 35 1.0 5.0 0.00 0.00 0.00 63 1032.7
20230202191427 31 37 0.0 2.0 0.00 0.00 0.00 61 1032.8
20230202190926 30 29 1.0 2.0 0.00 0.00 0.00 62 1032.8
20230202190425 30 27 1.0 7.0 0.00 0.00 0.00 62 1033.1
20230202185923 30 20 1.0 2.0 0.00 0.00 0.00 62 1032.8
20230202185422 31 325 2.0 6.0 0.00 0.00 0.00 61 1032.5
20230202184920 31 355 2.0 3.0 0.00 0.00 0.00 59 1033.1
20230202184419 30 18 1.0 2.0 0.00 0.00 0.00 60 1033.5
20230202183915 30 17 1.0 5.0 0.00 0.00 0.00 61 1033.2
20230202183414 30 4 3.0 5.0 0.00 0.00 0.00 58 1033.0
20230202182914 30 28 1.0 2.0 0.00 0.00 0.00 58 1032.8
20230202182412 29 65 1.0 2.0 0.00 0.00 0.00 60 1033.0
20230202181911 29 42 0.0 2.0 0.00 0.00 0.00 60 1033.3
20230202181411 30 357 2.0 2.0 0.00 0.00 0.00 58 1033.1
20230202180908 30 22 1.0 1.0 0.00 0.00 0.00 59 1033.0
20230202180408 27 23 0.0 0.0 0.00 0.00 0.00 63 1033.2
20230202175907 27 1 2.0 2.0 0.00 0.00 0.00 63 1033.2
20230202175407 28 26 1.0 2.0 0.00 0.00 0.00 63 1033.3
20230202174906 27 8 1.0 2.0 0.00 0.00 0.00 64 1033.0
20230202174406 28 41 0.0 1.0 0.00 0.00 0.00 64 1032.8
20230202173905 26 34 0.0 1.0 0.00 0.00 0.00 66 1033.2
20230202173405 26 42 0.0 1.0 0.00 0.00 0.00 70 1033.0
20230202172903 26 336 3.0 3.0 0.00 0.00 0.00 66 1032.4
20230202172402 26 46 0.0 2.0 0.00 0.00 0.00 67 1032.7
20230202171900 25 25 0.0 1.0 0.00 0.00 0.00 70 1032.8
20230202171400 25 18 0.0 1.0 0.00 0.00 0.00 69 1033.0
20230202170859 26 42 0.0 1.0 0.00 0.00 0.00 68 1032.5
20230202170357 26 29 0.0 2.0 0.00 0.00 0.00 69 1032.5
20230202165855 25 29 0.0 1.0 0.00 0.00 0.00 71 1032.5
20230202165354 24 40 0.0 1.0 0.00 0.00 0.00 72 1033.0
20230202164853 24 343 3.0 3.0 0.00 0.00 0.00 71 1032.5
20230202164353 24 27 0.0 1.0 0.00 0.00 0.00 73 1032.1
20230202163851 24 347 2.0 2.0 0.00 0.00 0.00 73 1032.5
20230202163352 24 20 1.0 1.0 0.00 0.00 0.00 74 1032.6
20230202162851 23 358 2.0 3.0 0.00 0.00 0.00 75 1032.3
20230202162350 23 21 0.0 1.0 0.00 0.00 0.00 76 1031.9
20230202161849 21 18 1.0 2.0 0.00 0.00 0.00 77 1032.2
20230202161349 21 23 0.0 0.0 0.00 0.00 0.00 79 1032.4
20230202160849 21 107 0.0 0.0 0.00 0.00 0.00 80 1032.1
20230202160349 20 125 0.0 0.0 0.00 0.00 0.00 81 1031.8
20230202155848 20 129 0.0 0.0 0.00 0.00 0.00 82 1031.8
20230202155346 19 139 0.0 0.0 0.00 0.00 0.00 82 1031.9
20230202154847 19 139 0.0 0.0 0.00 0.00 0.00 82 1031.9
20230202154346 19 140 0.0 0.0 0.00 0.00 0.00 82 1031.7
20230202153845 19 140 0.0 0.0 0.00 0.00 0.00 83 1031.6
20230202153344 18 140 0.0 0.0 0.00 0.00 0.00 84 1032.1
20230202152844 17 140 0.0 0.0 0.00 0.00 0.00 84 1032.2
20230202152343 17 141 0.0 0.0 0.00 0.00 0.00 85 1031.6
20230202151842 17 140 0.0 0.0 0.00 0.00 0.00 85 1031.5
20230202151341 16 140 0.0 0.0 0.00 0.00 0.00 86 1031.8
20230202150839 16 140 0.0 0.0 0.00 0.00 0.00 86 1031.9
20230202150337 15 140 0.0 0.0 0.00 0.00 0.00 86 1031.8
20230202145835 15 140 0.0 0.0 0.00 0.00 0.00 85 1031.1
20230202145335 15 140 0.0 0.0 0.00 0.00 0.00 84 1031.3
20230202144834 15 140 0.0 0.0 0.00 0.00 0.00 83 1031.5
20230202144334 15 141 0.0 0.0 0.00 0.00 0.00 83 1031.4
20230202143834 15 141 0.0 0.0 0.00 0.00 0.00 83 1031.0
20230202143332 14 141 0.0 0.0 0.00 0.00 0.00 82 1030.8
20230202142832 15 141 0.0 0.0 0.00 0.00 0.00 82 1030.9
20230202142330 15 179 0.0 0.0 0.00 0.00 0.00 82 1031.4
20230202141829 15 180 0.0 0.0 0.00 0.00 0.00 82 1030.9
20230202141328 15 180 0.0 0.0 0.00 0.00 0.00 83 1030.8
20230202140826 15 180 0.0 0.0 0.00 0.00 0.00 83 1031.3
20230202140324 15 180 0.0 0.0 0.00 0.00 0.00 83 1031.7
20230202135824 15 180 0.0 0.0 0.00 0.00 0.00 83 1032.3
20230202135323 14 180 0.0 0.0 0.00 0.00 0.00 83 1031.9
20230202134822 15 180 0.0 0.0 0.00 0.00 0.00 82 1032.1
20230202134322 15 180 1.0 1.0 0.00 0.00 0.00 82 1031.6
20230202133821 15 182 1.0 2.0 0.00 0.00 0.00 83 1031.6
20230202133320 15 180 0.0 0.0 0.00 0.00 0.00 83 1032.2
20230202132819 15 180 0.0 0.0 0.00 0.00 0.00 83 1032.6
20230202132318 15 180 0.0 0.0 0.00 0.00 0.00 83 1033.0
20230202131817 15 180 0.0 1.0 0.00 0.00 0.00 83 1033.1
20230202131316 15 180 1.0 1.0 0.00 0.00 0.00 82 1033.0
20230202130815 15 180 1.0 1.0 0.00 0.00 0.00 82 1033.0
20230202130314 15 181 2.0 2.0 0.00 0.00 0.00 82 1033.0
20230202125811 15 179 2.0 2.0 0.00 0.00 0.00 82 1032.8
20230202125309 16 179 0.0 0.0 0.00 0.00 0.00 82 1033.0
20230202124808 16 179 0.0 0.0 0.00 0.00 0.00 82 1033.0
20230202124307 16 179 0.0 0.0 0.00 0.00 0.00 82 1032.8
20230202123806 16 180 0.0 0.0 0.00 0.00 0.00 82 1032.6
20230202123305 15 179 1.0 1.0 0.00 0.00 0.00 83 1032.4
20230202122804 15 179 0.0 0.0 0.00 0.00 0.00 83 1031.9
20230202122305 15 179 0.0 0.0 0.00 0.00 0.00 82 1031.0
20230202121804 15 179 0.0 0.0 0.00 0.00 0.00 81 1030.2
20230202121303 15 179 0.0 0.0 0.00 0.00 0.00 81 1030.0
20230202120802 15 180 0.0 0.0 0.00 0.00 0.00 81 1030.0
20230202120300 15 181 0.0 0.0 0.00 0.00 0.00 81 1029.9
20230202115801 15 181 0.0 0.0 0.00 0.00 0.00 81 1029.7
20230202115259 15 183 0.0 0.0 0.00 0.00 0.00 81 1029.4
20230202114758 15 185 0.0 0.0 0.00 0.00 0.00 81 1029.4
20230202114257 15 190 1.0 2.0 0.00 0.00 0.00 80 1029.4
20230202113757 16 177 0.0 0.0 0.00 0.00 0.00 80 1029.7
20230202113255 16 177 0.0 1.0 0.00 0.00 0.00 80 1029.5
20230202112755 16 178 0.0 1.0 0.00 0.00 0.00 79 1029.5
20230202112255 17 179 1.0 1.0 0.00 0.00 0.00 79 1029.5
20230202111753 17 177 2.0 2.0 0.00 0.00 0.00 78 1029.5
20230202111251 17 176 0.0 0.0 0.00 0.00 0.00 77 1029.4
20230202110749 17 176 0.0 0.0 0.00 0.00 0.00 77 1029.4
20230202110247 17 177 0.0 1.0 0.00 0.00 0.00 77 1029.7
20230202105745 17 177 1.0 1.0 0.00 0.00 0.00 78 1029.4
20230202105245 17 176 0.0 0.0 0.00 0.00 0.00 78 1029.4
20230202104743 17 176 0.0 0.0 0.00 0.00 0.00 78 1029.5
20230202104242 17 176 0.0 0.0 0.00 0.00 0.00 78 1029.5
20230202103741 16 176 0.0 0.0 0.00 0.00 0.00 78 1029.5
20230202103240 16 176 0.0 0.0 0.00 0.00 0.00 78 1029.3
20230202102738 16 176 0.0 0.0 0.00 0.00 0.00 78 1029.5
20230202102236 16 176 0.0 0.0 0.00 0.00 0.00 78 1029.5
20230202101734 16 176 0.0 0.0 0.00 0.00 0.00 78 1029.4
20230202101233 16 176 0.0 0.0 0.00 0.00 0.00 78 1029.4
20230202100732 16 176 0.0 1.0 0.00 0.00 0.00 78 1029.3
20230202100231 16 176 0.0 0.0 0.00 0.00 0.00 78 1029.3
20230202095730 17 176 0.0 0.0 0.00 0.00 0.00 79 1029.3
20230202095229 16 175 0.0 0.0 0.00 0.00 0.00 79 1029.2
20230202094729 16 175 0.0 0.0 0.00 0.00 0.00 80 1029.3
20230202094227 16 175 0.0 1.0 0.00 0.00 0.00 80 1029.4
20230202093726 16 185 0.0 2.0 0.00 0.00 0.00 80 1029.2
20230202093225 16 185 1.0 1.0 0.00 0.00 0.00 80 1029.2
20230202092725 16 185 1.0 2.0 0.00 0.00 0.00 80 1029.2
20230202092223 16 185 1.0 2.0 0.00 0.00 0.00 80 1029.1
20230202091723 16 193 1.0 3.0 0.00 0.00 0.00 80 1029.3
20230202091222 16 196 2.0 3.0 0.00 0.00 0.00 81 1029.2
20230202090721 16 179 2.0 2.0 0.00 0.00 0.00 82 1029.2
20230202090217 16 183 0.0 1.0 0.00 0.00 0.00 81 1029.3
20230202085717 16 184 0.0 1.0 0.00 0.00 0.00 81 1029.2
20230202085217 16 190 0.0 1.0 0.00 0.00 0.00 81 1029.2
20230202084716 16 189 1.0 1.0 0.00 0.00 0.00 81 1029.3
20230202084216 16 189 1.0 2.0 0.00 0.00 0.00 81 1029.3
20230202083714 16 190 1.0 1.0 0.00 0.00 0.00 81 1029.3
20230202083214 16 190 1.0 1.0 0.00 0.00 0.00 81 1029.3
20230202082713 16 190 1.0 2.0 0.00 0.00 0.00 80 1029.1
20230202082213 16 189 2.0 2.0 0.00 0.00 0.00 80 1029.2
20230202081712 16 189 1.0 1.0 0.00 0.00 0.00 80 1029.2
20230202081211 16 189 0.0 0.0 0.00 0.00 0.00 80 1029.1
20230202080709 16 189 0.0 0.0 0.00 0.00 0.00 80 1029.2
20230202080208 16 190 0.0 1.0 0.00 0.00 0.00 79 1029.0
20230202075708 16 191 1.0 2.0 0.00 0.00 0.00 79 1029.3
20230202075206 16 191 1.0 2.0 0.00 0.00 0.00 79 1029.3
20230202074706 17 189 0.0 1.0 0.00 0.00 0.00 78 1029.3
20230202074204 17 189 1.0 2.0 0.00 0.00 0.00 78 1029.2
20230202073703 17 190 1.0 2.0 0.00 0.00 0.00 78 1029.3
20230202073202 17 190 1.0 2.0 0.00 0.00 0.00 77 1029.1
20230202072702 17 191 1.0 2.0 0.00 0.00 0.00 76 1029.2
20230202072201 18 192 1.0 2.0 0.00 0.00 0.00 76 1029.3
20230202071701 18 194 0.0 0.0 0.00 0.00 0.00 75 1029.3
20230202071200 18 194 0.0 0.0 0.00 0.00 0.00 75 1029.1
20230202070700 18 194 0.0 0.0 0.00 0.00 0.00 75 1029.0
20230202070159 18 195 0.0 0.0 0.00 0.00 0.00 75 1029.1
20230202065658 18 194 0.0 0.0 0.00 0.00 0.00 75 1028.6
20230202065156 18 194 0.0 0.0 0.00 0.00 0.00 75 1028.9
20230202064654 18 195 0.0 0.0 0.00 0.00 0.00 75 1029.0
20230202064154 18 194 0.0 0.0 0.00 0.00 0.00 75 1028.9
20230202063654 18 194 0.0 0.0 0.00 0.00 0.00 75 1028.6
20230202063154 18 194 0.0 0.0 0.00 0.00 0.00 75 1029.0
20230202062654 18 194 0.0 0.0 0.00 0.00 0.00 75 1028.7
20230202062153 18 193 0.0 0.0 0.00 0.00 0.00 76 1028.6
20230202061653 17 193 0.0 0.0 0.00 0.00 0.00 76 1028.6
20230202061152 17 193 0.0 0.0 0.00 0.00 0.00 76 1028.5
20230202060651 17 193 0.0 0.0 0.00 0.00 0.00 76 1028.6